Station: Tasman Island  

  Atmospheric Gas Attenuation - ITU Rec 676-11   ----------------- dB/100km -----------------
Date Time Temp RH % AH g/m3 Dew Point Wind Direction Speed kph Gust kph Barometer mB Rainfall Since 9am 24GHz 47GHz 76GHz 122GHz 134GHz 241GHz
03/09 12:10 10 57 5.36 1.9 13 37 995.6 0 12.8 21.2 28.2 73.8 60.0 203.6
03/09 12:00 9.9 57 5.32 1.8 13 39 995.3 0 12.7 21.2 28.1 73.5 59.6 202.1
03/09 11:50 9.7 57 5.26 1.6 13 37 995.3 0 12.6 21.1 28.0 73.1 59.0 200.1
03/09 11:40 9.7 59 5.44 2.1 11 30 995.2 0 13.0 21.4 28.6 74.8 61.2 207.7
03/09 11:30 9.3 62 5.57 2.4 13 33 995.1 0 13.3 21.7 29.2 76.5 63.1 214.4
03/09 11:20 9.5 63 5.74 2.8 9 30 995.2 0 13.7 21.9 29.8 78.0 65.0 221.2
03/09 11:10 9.2 64 5.72 2.8 11 35 995.2 0 13.6 21.9 29.8 78.1 65.0 221.1
03/09 11:00 9.7 63 5.81 3 9 30 995.1 0 13.8 22.0 30.0 78.5 65.7 223.6
03/09 10:50 9.4 62 5.61 2.5 9 33 994.9 0 13.4 21.7 29.4 76.8 63.5 215.8
03/09 10:40 9.5 63 5.74 2.8 11 37 994.9 0 13.7 21.9 29.8 78.0 65.0 221.1
03/09 10:30 9.2 59 5.27 1.6 11 43 994.9 0 12.7 21.3 28.2 73.6 59.5 201.7
03/09 10:20 8.9 61 5.35 1.8 11 30 994.7 0 12.8 21.4 28.6 74.6 60.7 205.9
03/09 10:10 8.9 67 5.87 3.1 9 37 994.8 0 14.0 22.2 30.5 79.9 67.1 228.5
03/09 10:00 8.9 70 6.13 3.7 7 28 995.2 0 14.5 22.6 31.5 82.5 70.4 240.0
03/09 09:50 8.8 72 6.27 4 7 26 994.9 0 14.8 22.9 32.1 84.1 72.3 246.5
03/09 09:40 9 70 6.17 3.8 6 20 994.8 0 14.6 22.7 31.6 82.8 70.8 241.4
03/09 09:30 8.6 68 5.85 3 9 33 995 0 13.9 22.3 30.6 80.0 67.1 228.5
03/09 09:20 9.5 63 5.74 2.8 9 33 995.3 0 13.7 21.9 29.8 78.0 65.0 221.2
03/09 09:10 9.7 59 5.44 2.1 7 30 994.9 0 13.0 21.4 28.6 74.8 61.2 207.7
03/09 09:00 10.4 64 6.17 3.9 7 26 994.9 0 14.5 22.3 31.1 81.4 69.6 237.2
03/09 08:50 9.8 75 6.96 5.6 7 26 994.8 1.8 16.3 23.7 34.3 90.1 80.1 274.3
03/09 08:40 9.1 72 6.39 4.3 9 32 994.3 1.8 15.1 23.0 32.4 84.9 73.5 250.8
03/09 08:30 10 71 6.67 5 9 24 994.1 1.8 15.6 23.2 33.1 86.8 76.2 260.4
03/09 08:20 9.9 72 6.72 5.1 11 32 993.9 1.8 15.7 23.3 33.3 87.4 76.9 262.9
03/09 08:10 9.8 70 6.5 4.6 11 35 993.3 1.8 15.3 22.9 32.5 85.2 74.1 253.3
03/09 08:00 9.7 73 6.73 5.1 15 41 993.1 1.8 15.8 23.3 33.4 87.7 77.2 263.8
03/09 07:50 9.5 74 6.74 5.1 15 37 992.7 1.8 15.8 23.3 33.5 88.0 77.5 264.9
03/09 07:40 9.4 75 6.79 5.2 11 30 992.8 1.8 15.9 23.5 33.8 88.6 78.2 267.5
03/09 07:30 9.3 78 7.01 5.7 9 28 993.1 1.8 16.4 23.8 34.7 91.1 81.2 277.9
03/09 07:20 9.3 77 6.92 5.5 11 30 993.3 1.8 16.2 23.7 34.3 90.1 80.0 273.8
03/09 07:10 9.2 78 6.97 5.6 11 37 993.1 1.8 16.3 23.8 34.6 90.8 80.8 276.4
03/09 07:00 9.1 90 7.99 7.5 11 28 993.4 1.8 18.5 25.5 38.8 101.9 94.5 324.4
03/09 06:50 9 94 8.29 8.1 9 32 993.6 1.8 19.2 26.0 40.1 105.4 98.7 339.3
03/09 06:40 9 91 8.03 7.6 9 28 993.6 1.6 18.6 25.6 39.0 102.5 95.2 326.8
03/09 06:30 10.2 83 7.9 7.4 20 43 993.3 1 18.3 25.0 37.9 99.5 91.9 315.6
03/09 06:20 10.2 81 7.71 7.1 22 46 993 0.4 17.9 24.7 37.1 97.4 89.4 306.7
03/09 06:10 10.2 83 7.9 7.4 17 30 992.9 0.4 18.3 25.0 37.8 99.5 91.9 315.5
03/09 06:00 10.8 77 7.61 6.9 19 32 993.1 0 17.6 24.4 36.4 95.6 87.4 299.8
03/09 05:50 10.8 75 7.41 6.6 20 33 992.9 0 17.2 24.1 35.6 93.5 84.8 290.6
03/09 05:40 10.9 75 7.46 6.6 19 33 992.7 0 17.3 24.1 35.7 93.9 85.3 292.5
03/09 05:30 11.1 73 7.35 6.5 20 37 992.5 0 17.0 23.9 35.2 92.5 83.6 286.7
03/09 05:20 11.6 68 7.07 5.9 26 41 992.3 0 16.4 23.3 33.9 89.0 79.5 272.4
03/09 05:10 12 63 6.71 5.2 30 46 992.1 0 15.6 22.6 32.4 84.9 74.6 255.2
03/09 05:00 11.6 65 6.76 5.3 24 41 992.3 0 15.8 22.8 32.7 85.8 75.6 258.7
03/09 04:50 11.3 67 6.84 5.4 19 32 992.3 0 15.9 23.0 33.1 87.0 76.9 263.2
03/09 04:40 10.9 69 6.86 5.4 20 46 992 0 16.0 23.1 33.4 87.6 77.6 265.4
03/09 04:30 11 69 6.91 5.5 20 39 992.1 0 16.1 23.2 33.5 88.0 78.1 267.3
03/09 04:20 11.1 70 7.05 5.8 17 30 992.1 0 16.4 23.4 34.0 89.3 79.8 273.2
03/09 04:10 10.8 71 7.02 5.8 17 28 992.4 0 16.4 23.4 34.1 89.4 79.7 272.9
03/09 04:00 10.7 73 7.17 6.1 17 28 992.5 0 16.7 23.7 34.7 91.1 81.7 280.0
03/09 03:50 10.8 73 7.22 6.2 19 24 993.2 0 16.8 23.8 34.9 91.5 82.3 282.1
03/09 03:40 10.9 71 7.06 5.9 15 24 993.4 0 16.4 23.5 34.2 89.8 80.2 274.6
03/09 03:30 11.3 68 6.94 5.6 20 35 993.6 0 16.2 23.2 33.6 88.1 78.3 267.9
03/09 03:20 11.5 67 6.92 5.6 19 35 993.7 0 16.1 23.1 33.4 87.7 77.8 266.4
03/09 03:10 11.4 68 6.98 5.7 19 32 993.9 0 16.2 23.3 33.7 88.4 78.7 269.4
03/09 03:00 11.1 69 6.95 5.6 19 35 994.3 0 16.2 23.3 33.7 88.5 78.7 269.2
03/09 02:50 11.3 67 6.84 5.4 22 44 994.6 0 15.9 23.1 33.2 87.2 77.1 263.7
03/09 02:40 11.5 66 6.82 5.4 22 46 994.6 0 15.9 23.0 33.1 86.8 76.6 262.2
03/09 02:30 11.5 67 6.92 5.6 20 35 994.9 0 16.1 23.2 33.5 87.8 77.9 266.7
03/09 02:20 11.4 67 6.88 5.5 22 41 995.4 0 16.0 23.2 33.4 87.6 77.5 265.3
03/09 02:10 11.2 68 6.89 5.5 22 50 995.8 0 16.1 23.3 33.5 87.9 77.9 266.5
03/09 02:00 11.4 66 6.78 5.3 22 44 995.8 0 15.8 23.0 33.0 86.6 76.3 261.0
03/09 01:50 11.3 67 6.84 5.4 22 41 996 0 15.9 23.2 33.3 87.3 77.2 264.0
03/09 01:40 11.4 65 6.67 5.1 26 44 996.2 0 15.6 22.9 32.6 85.5 75.0 256.3
03/09 01:30 11.5 65 6.71 5.2 26 44 996.1 0 15.7 22.9 32.7 85.8 75.4 257.7
03/09 01:20 11.3 67 6.84 5.4 22 39 996.4 0 15.9 23.2 33.3 87.4 77.2 264.1
03/09 01:10 11.5 65 6.71 5.2 26 41 996.4 0 15.7 22.9 32.7 85.8 75.4 257.7
03/09 01:00 11.4 65 6.67 5.1 26 39 996.6 0 15.6 22.9 32.6 85.5 75.0 256.4
03/09 00:50 11.5 65 6.71 5.2 26 41 996.7 0 15.7 22.9 32.7 85.8 75.4 257.8
03/09 00:40 11.6 65 6.76 5.3 28 50 996.9 0 15.8 23.0 32.9 86.3 75.9 259.7
03/09 00:30 11.6 65 6.76 5.3 30 46 997.1 0 15.8 23.0 32.9 86.3 76.0 259.8
03/09 00:20 11.6 65 6.76 5.3 26 41 997.1 0 15.8 23.0 32.9 86.3 76.0 259.8
03/09 00:10 11.6 64 6.65 5 24 41 997.4 0 15.5 22.8 32.5 85.2 74.6 255.0
03/09 00:00 11.6 64 6.65 5 26 43 997.5 0 15.5 22.8 32.5 85.2 74.6 255.0
02/09 23:50 11.6 64 6.65 5 28 43 997.5 0 15.5 22.8 32.5 85.2 74.6 255.0
02/09 23:40 11.7 63 6.59 4.9 28 48 997.8 0 15.4 22.7 32.3 84.5 73.8 252.2
02/09 23:30 11.7 63 6.59 4.9 28 43 998.1 0 15.4 22.7 32.3 84.5 73.8 252.2
02/09 23:20 11.8 63 6.63 5 26 43 998.3 0 15.5 22.8 32.4 84.9 74.2 253.7
02/09 23:10 11.8 64 6.74 5.2 24 39 998.5 0 15.7 23.0 32.8 86.0 75.6 258.6
02/09 23:00 11.8 64 6.74 5.2 22 37 998.7 0 15.7 23.0 32.8 86.0 75.6 258.6
02/09 22:50 11.6 64 6.65 5 24 37 998.7 0 15.5 22.9 32.6 85.3 74.7 255.3
02/09 22:40 11.7 64 6.69 5.1 24 43 998.8 0 15.6 22.9 32.7 85.6 75.1 256.7
02/09 22:30 11.8 64 6.74 5.2 22 41 999 0 15.7 23.0 32.8 86.0 75.6 258.7
02/09 22:20 11.9 63 6.67 5.1 26 43 999.3 0 15.6 22.9 32.5 85.2 74.7 255.3
02/09 22:10 11.9 63 6.67 5.1 26 43 999.5 0 15.6 22.9 32.5 85.3 74.7 255.4
02/09 22:00 11.9 64 6.78 5.3 26 46 999.7 0 15.8 23.0 33.0 86.4 76.1 260.2
02/09 21:50 11.8 65 6.84 5.4 22 41 999.8 0 15.9 23.2 33.2 87.1 76.9 263.2
02/09 21:40 11.4 66 6.78 5.3 17 37 1000.1 0 15.8 23.2 33.2 87.0 76.6 262.0
02/09 21:30 11.7 66 6.9 5.6 20 35 1000.2 0 16.1 23.3 33.5 87.9 77.8 266.3
02/09 21:20 11.6 66 6.86 5.5 17 30 1000.4 0 16.0 23.3 33.4 87.6 77.4 264.9
02/09 21:10 11.5 66 6.82 5.4 19 32 1000.5 0 15.9 23.2 33.3 87.3 77.0 263.5
02/09 21:00 11.5 66 6.82 5.4 20 37 1000.6 0 15.9 23.2 33.3 87.3 77.0 263.5
02/09 20:50 11.6 65 6.76 5.3 19 35 1000.6 0 15.8 23.1 33.1 86.6 76.2 260.6
02/09 20:40 11.6 65 6.76 5.3 19 30 1000.7 0 15.8 23.1 33.1 86.6 76.2 260.6
02/09 20:30 12 63 6.71 5.2 20 35 1000.8 0 15.6 23.0 32.7 85.7 75.2 257.1
02/09 20:20 11.8 64 6.74 5.2 19 39 1000.8 0 15.7 23.0 32.9 86.2 75.8 259.1
02/09 20:10 11.6 65 6.76 5.3 17 30 1001.1 0 15.8 23.1 33.1 86.7 76.2 260.7
02/09 20:00 11.9 63 6.67 5.1 19 28 1001.2 0 15.6 22.9 32.6 85.4 74.8 255.8
02/09 19:50 12.1 62 6.65 5 19 35 1001.1 0 15.5 22.8 32.5 85.0 74.4 254.2
02/09 19:40 11.8 64 6.74 5.2 17 24 1001.3 0 15.7 23.1 32.9 86.3 75.8 259.2

Last Refresh: 03-Sep-2026 11:48:21

Bureau of Meteorology